CMA CGM Turquoise — A8RB5 — position and weather

sailwx.info

Track history (hours):
 
Tides and Currents Weather Stations Pressure Air Temp Water Temp Dewpoint Dewpoint Depression Visibility Wind Speed Wind Dir Waves Ship Positions

CMA CGM Turquoise

Last reported at 2015-Jun-13 17:04 UTC. Time now 2015-Jul-08 00:02 UTC.
Position S 29°56' E 013°33'.
Warning: this ship's position is 24 days out of date.

Length 258 m; draft 11.5 m.

Type: Ship. MMSI: 636014059.

Date/timePositionNaut miles runAvg speedWind from/ knotsBaromVisibWave heightAir tempDewpointWater temp
2015-Jun-13 17:04S 29°56' E 013°33'815.1
2015-Jun-13 16:32S 30°03' E 013°38'33013.7
2015-Jun-12 16:33S 33°50' E 018°20'7 7.2
2015-Jun-12 15:31S 33°55' E 018°27'0 0.0
2015-Jun-12 09:32S 33°55' E 018°27'0 0.0
2015-Jun-12 08:31S 33°55' E 018°27'0 0.0
2015-Jun-12 07:28S 33°55' E 018°27'0 0.0
2015-Jun-12 06:15S 33°55' E 018°27'0 0.0
2015-Jun-12 05:15S 33°55' E 018°27'0 0.0
2015-Jun-12 04:32S 33°55' E 018°27'0 0.0
2015-Jun-11 15:31S 33°55' E 018°27'0 0.0
2015-Jun-11 14:31S 33°55' E 018°27'0 0.0
2015-Jun-11 13:33S 33°55' E 018°27'2 1.8
2015-Jun-11 12:33S 33°53' E 018°26'2 1.6
2015-Jun-11 11:05S 33°51' E 018°26'0 0.0
2015-Jun-11 10:31S 33°51' E 018°26'0 0.0
2015-Jun-11 09:31S 33°51' E 018°26'0 0.0
2015-Jun-11 08:28S 33°51' E 018°26'0 0.0
2015-Jun-11 07:33S 33°51' E 018°26'0 0.0
2015-Jun-11 06:33S 33°51' E 018°26'0 0.0
2015-Jun-11 05:32S 33°51' E 018°26'0 0.0
2015-Jun-11 04:32S 33°51' E 018°26'0 0.0
2015-Jun-11 03:31S 33°51' E 018°26'0 0.0
2015-Jun-11 02:28S 33°51' E 018°26'0 0.0
2015-Jun-11 01:31S 33°51' E 018°26'0 0.0
2015-Jun-11 00:33S 33°51' E 018°26'0 0.0
2015-Jun-10 23:33S 33°51' E 018°26'0 0.0
2015-Jun-10 22:32S 33°51' E 018°26'0 0.0
2015-Jun-10 21:32S 33°51' E 018°26'0 0.0
2015-Jun-10 20:31S 33°51' E 018°26'3 3.6
2015-Jun-10 19:33S 33°53' E 018°23'4410.9
2015-Jun-10 15:27S 34°35' E 018°38'13914.9
2015-Jun-10 06:06S 34°53' E 021°26'22516.6
2015-Jun-09 16:31S 34°21' E 025°57'4317.6
2015-Jun-09 14:03S 34°10' E 026°47'4215.6
2015-Jun-09 11:23S 33°56' E 027°35'1314.9
2015-Jun-09 10:32S 33°50' E 027°48'5115.8
2015-Jun-09 07:19S 33°24' E 028°41'  
Track history (hours):
 
Tides and Currents Weather Stations Pressure Air Temp Water Temp Dewpoint Dewpoint Depression Visibility Wind Speed Wind Dir Waves Ship Positions

CMA CGM Turquoise

Last reported at 2015-Jun-13 17:04 UTC. Time now 2015-Jul-08 00:02 UTC.
Position S 29°56' E 013°33'.
Warning: this ship's position is 24 days out of date.

Length 258 m; draft 11.5 m.

Type: Ship. MMSI: 636014059.

Date/timePositionNaut miles runAvg speedWind from/ knotsBaromVisibWave heightAir tempDewpointWater temp
2015-Jun-13 17:04S 29°56' E 013°33'815.1
2015-Jun-13 16:32S 30°03' E 013°38'33013.7
2015-Jun-12 16:33S 33°50' E 018°20'7 7.2
2015-Jun-12 15:31S 33°55' E 018°27'0 0.0
2015-Jun-12 09:32S 33°55' E 018°27'0 0.0
2015-Jun-12 08:31S 33°55' E 018°27'0 0.0
2015-Jun-12 07:28S 33°55' E 018°27'0 0.0
2015-Jun-12 06:15S 33°55' E 018°27'0 0.0
2015-Jun-12 05:15S 33°55' E 018°27'0 0.0
2015-Jun-12 04:32S 33°55' E 018°27'0 0.0
2015-Jun-11 15:31S 33°55' E 018°27'0 0.0
2015-Jun-11 14:31S 33°55' E 018°27'0 0.0
2015-Jun-11 13:33S 33°55' E 018°27'2 1.8
2015-Jun-11 12:33S 33°53' E 018°26'2 1.6
2015-Jun-11 11:05S 33°51' E 018°26'0 0.0
2015-Jun-11 10:31S 33°51' E 018°26'0 0.0
2015-Jun-11 09:31S 33°51' E 018°26'0 0.0
2015-Jun-11 08:28S 33°51' E 018°26'0 0.0
2015-Jun-11 07:33S 33°51' E 018°26'0 0.0
2015-Jun-11 06:33S 33°51' E 018°26'0 0.0
2015-Jun-11 05:32S 33°51' E 018°26'0 0.0
2015-Jun-11 04:32S 33°51' E 018°26'0 0.0
2015-Jun-11 03:31S 33°51' E 018°26'0 0.0
2015-Jun-11 02:28S 33°51' E 018°26'0 0.0
2015-Jun-11 01:31S 33°51' E 018°26'0 0.0
2015-Jun-11 00:33S 33°51' E 018°26'0 0.0
2015-Jun-10 23:33S 33°51' E 018°26'0 0.0
2015-Jun-10 22:32S 33°51' E 018°26'0 0.0
2015-Jun-10 21:32S 33°51' E 018°26'0 0.0
2015-Jun-10 20:31S 33°51' E 018°26'3 3.6
2015-Jun-10 19:33S 33°53' E 018°23'4410.9
2015-Jun-10 15:27S 34°35' E 018°38'13914.9
2015-Jun-10 06:06S 34°53' E 021°26'22516.6
2015-Jun-09 16:31S 34°21' E 025°57'4317.6
2015-Jun-09 14:03S 34°10' E 026°47'4215.6
2015-Jun-09 11:23S 33°56' E 027°35'1314.9
2015-Jun-09 10:32S 33°50' E 027°48'5115.8
2015-Jun-09 07:19S 33°24' E 028°41'  

Dump ship's entire track history